createdAt,value
2018-11-27T00:01:44.888Z,51.33
2018-11-27T00:04:13.318Z,51.47
2018-11-27T00:06:41.615Z,45.47
2018-11-27T00:09:09.914Z,58.33
2018-11-27T00:11:38.687Z,51.43
2018-11-27T00:14:07.363Z,55.10
2018-11-27T00:16:36.282Z,52.83
2018-11-27T00:19:05.151Z,53.53
2018-11-27T00:21:33.358Z,51.53
2018-11-27T00:24:02.338Z,49.47
2018-11-27T00:26:32.806Z,51.37
2018-11-27T00:29:00.914Z,52.27
2018-11-27T00:31:30.147Z,48.00
2018-11-27T00:33:59.539Z,45.07
2018-11-27T00:36:27.641Z,55.07
2018-11-27T00:38:56.499Z,48.67
2018-11-27T00:41:24.686Z,52.23
2018-11-27T00:43:53.525Z,48.83
2018-11-27T00:46:21.737Z,51.77
2018-11-27T00:48:50.462Z,48.73
2018-11-27T00:51:18.641Z,42.43
2018-11-27T00:53:48.118Z,46.10
2018-11-27T00:56:17.766Z,45.77
2018-11-27T00:58:47.249Z,46.23
2018-11-27T01:01:17.048Z,42.13
2018-11-27T01:03:45.872Z,48.23
2018-11-27T01:06:14.593Z,39.00
2018-11-27T01:08:42.789Z,46.67
2018-11-27T01:11:12.157Z,48.10
2018-11-27T01:13:41.278Z,47.73
2018-11-27T01:16:10.981Z,47.97
2018-11-27T01:18:40.743Z,49.87
2018-11-27T01:21:10.137Z,46.60
2018-11-27T01:23:39.043Z,44.83
2018-11-27T01:26:07.422Z,46.80
2018-11-27T01:28:36.205Z,54.27
2018-11-27T01:31:04.779Z,48.57
2018-11-27T01:33:33.709Z,43.00
2018-11-27T01:36:02.362Z,58.93
2018-11-27T01:38:31.569Z,48.23
2018-11-27T01:41:00.254Z,47.17
2018-11-27T01:43:30.732Z,44.60
2018-11-27T01:45:58.829Z,45.60
2018-11-27T01:48:26.920Z,49.93
2018-11-27T01:50:55.017Z,54.60
2018-11-27T01:53:24.270Z,51.30
2018-11-27T01:55:52.662Z,52.37
2018-11-27T01:58:20.750Z,48.30
2018-11-27T02:00:49.407Z,50.60
2018-11-27T02:03:18.139Z,51.50
2018-11-27T02:05:46.830Z,50.87
2018-11-27T02:08:16.193Z,51.80
2018-11-27T02:10:44.465Z,49.57
2018-11-27T02:13:12.543Z,53.93
2018-11-27T02:15:40.986Z,52.30
2018-11-27T02:18:10.855Z,47.33
2018-11-27T02:20:40.435Z,50.97
2018-11-27T02:23:10.343Z,54.73
2018-11-27T02:25:38.503Z,56.10
2018-11-27T02:28:07.583Z,51.30
2018-11-27T02:30:37.103Z,49.97
2018-11-27T02:33:06.205Z,57.40
2018-11-27T02:35:34.530Z,46.47
2018-11-27T02:38:02.992Z,47.57
2018-11-27T02:40:32.913Z,51.40
2018-11-27T02:43:01.654Z,51.83
2018-11-27T02:45:30.926Z,39.00
2018-11-27T02:48:00.430Z,46.47
2018-11-27T02:50:29.830Z,42.80
2018-11-27T02:52:58.973Z,44.00
2018-11-27T02:55:28.051Z,47.77
2018-11-27T02:57:58.120Z,40.57
2018-11-27T03:00:27.434Z,37.70
2018-11-27T03:02:56.621Z,34.17
2018-11-27T03:05:27.504Z,38.50
2018-11-27T03:07:56.272Z,40.50
2018-11-27T03:10:25.930Z,32.30
2018-11-27T03:12:54.013Z,41.13
2018-11-27T03:15:22.155Z,35.50
2018-11-27T03:17:52.767Z,39.90
2018-11-27T03:20:22.879Z,33.10
2018-11-27T03:22:52.525Z,37.10
2018-11-27T03:25:22.608Z,31.53
2018-11-27T03:27:51.958Z,39.50
2018-11-27T03:30:22.450Z,38.30
2018-11-27T03:32:51.406Z,41.17
2018-11-27T03:35:21.360Z,60.47
2018-11-27T03:37:49.967Z,56.80
2018-11-27T03:40:22.772Z,63.37
2018-11-27T03:42:57.460Z,56.60
2018-11-27T03:45:26.030Z,70.33
2018-11-27T03:47:54.444Z,65.87
2018-11-27T03:50:24.595Z,58.23
2018-11-27T03:52:53.431Z,59.37
2018-11-27T03:55:23.809Z,57.50
2018-11-27T03:57:53.536Z,65.47
2018-11-27T04:00:24.771Z,66.50
2018-11-27T04:03:10.652Z,69.70
2018-11-27T04:05:39.127Z,51.83
2018-11-27T04:08:08.404Z,51.23
2018-11-27T04:10:38.286Z,55.40
2018-11-27T04:13:06.360Z,61.80
2018-11-27T04:15:36.165Z,60.10
2018-11-27T04:18:05.399Z,54.00
2018-11-27T04:20:34.530Z,53.37
2018-11-27T04:23:03.356Z,53.63
2018-11-27T04:25:32.301Z,54.93
2018-11-27T04:28:01.614Z,54.03
2018-11-27T04:30:29.697Z,49.80
2018-11-27T04:32:58.254Z,50.43
2018-11-27T04:35:27.101Z,52.00
2018-11-27T04:37:55.622Z,49.50
2018-11-27T04:40:25.498Z,48.97
2018-11-27T04:42:53.669Z,47.00
2018-11-27T04:45:24.541Z,47.47
2018-11-27T04:47:53.240Z,44.37
2018-11-27T04:50:21.512Z,47.23
2018-11-27T04:52:50.878Z,40.60
2018-11-27T04:55:20.544Z,41.57
2018-11-27T04:57:49.639Z,45.17
2018-11-27T05:00:19.738Z,37.40
2018-11-27T05:02:47.934Z,40.67
2018-11-27T05:05:17.394Z,38.47
2018-11-27T05:07:46.119Z,39.27
2018-11-27T05:10:18.187Z,40.90
2018-11-27T05:12:46.421Z,42.37
2018-11-27T05:15:18.395Z,40.63
2018-11-27T05:17:48.608Z,42.43
2018-11-27T05:20:17.816Z,48.97
2018-11-27T05:22:46.094Z,39.97
2018-11-27T05:25:15.314Z,41.50
2018-11-27T05:27:47.411Z,42.40
2018-11-27T05:30:17.455Z,42.37
2018-11-27T05:32:46.261Z,39.37
2018-11-27T05:35:21.358Z,38.70
2018-11-27T05:37:50.808Z,38.60
2018-11-27T05:40:21.878Z,34.67
2018-11-27T05:42:52.157Z,32.97
2018-11-27T05:45:21.225Z,30.07
2018-11-27T05:47:49.369Z,28.90
2018-11-27T05:50:20.976Z,32.57
2018-11-27T05:52:50.258Z,34.63
2018-11-27T05:55:18.587Z,30.73
2018-11-27T05:57:48.221Z,32.97
2018-11-27T06:00:19.261Z,29.50
2018-11-27T06:02:49.330Z,33.80
2018-11-27T06:05:21.993Z,32.43
2018-11-27T06:07:51.118Z,32.10
2018-11-27T06:10:21.207Z,26.97
2018-11-27T06:12:49.756Z,27.03
2018-11-27T06:15:20.859Z,28.30
2018-11-27T06:17:50.327Z,28.33
2018-11-27T06:20:21.466Z,26.73
2018-11-27T06:22:51.166Z,33.90
2018-11-27T06:25:20.946Z,30.87
2018-11-27T06:27:52.191Z,28.60
2018-11-27T06:30:23.341Z,26.13
2018-11-27T06:32:54.181Z,28.83
2018-11-27T06:38:02.985Z,32.40
2018-11-27T06:40:32.058Z,31.50
2018-11-27T06:43:02.042Z,32.30
2018-11-27T06:45:30.847Z,33.30
2018-11-27T06:48:00.098Z,34.70
2018-11-27T06:50:31.218Z,27.60
2018-11-27T06:53:00.568Z,29.73
2018-11-27T06:55:28.857Z,34.20
2018-11-27T06:57:57.136Z,37.23
2018-11-27T07:00:26.399Z,36.23
2018-11-27T07:02:56.029Z,38.73
2018-11-27T07:05:30.080Z,43.63
2018-11-27T07:07:59.582Z,37.73
2018-11-27T07:10:32.934Z,38.87
2018-11-27T07:13:07.543Z,37.17
2018-11-27T07:15:35.808Z,35.83
2018-11-27T07:18:05.852Z,34.07
2018-11-27T07:20:45.910Z,37.40
2018-11-27T07:23:15.073Z,34.37
2018-11-27T07:25:44.238Z,34.43
2018-11-27T07:28:13.990Z,35.27
2018-11-27T07:30:43.146Z,30.57
2018-11-27T07:33:11.222Z,36.23
2018-11-27T07:38:19.157Z,32.23
2018-11-27T07:40:48.080Z,32.40
2018-11-27T07:43:18.162Z,37.47
2018-11-27T07:45:49.200Z,35.93
2018-11-27T07:48:17.908Z,40.83
2018-11-27T07:50:47.431Z,35.20
2018-11-27T07:53:21.482Z,31.87
2018-11-27T07:55:49.880Z,37.50
2018-11-27T07:58:18.853Z,42.37
2018-11-27T08:00:47.014Z,36.07
2018-11-27T08:03:15.606Z,33.77
2018-11-27T08:05:53.123Z,34.67
2018-11-27T08:08:22.003Z,32.87
2018-11-27T08:10:51.764Z,38.43
2018-11-27T08:13:21.329Z,38.13
2018-11-27T08:15:50.843Z,34.33
2018-11-27T08:18:19.117Z,42.13
2018-11-27T08:23:29.824Z,38.43
2018-11-27T08:25:58.874Z,42.33
2018-11-27T08:28:27.267Z,34.83
2018-11-27T08:30:55.832Z,37.90
2018-11-27T08:33:23.903Z,45.43
2018-11-27T08:36:05.799Z,34.30
2018-11-27T08:38:34.732Z,36.10
2018-11-27T08:41:03.700Z,38.83
2018-11-27T08:43:34.059Z,36.70
2018-11-27T08:46:02.231Z,40.23
2018-11-27T08:48:32.953Z,37.50
2018-11-27T08:51:08.556Z,42.00
2018-11-27T08:53:38.047Z,38.90
2018-11-27T08:56:10.075Z,32.70
2018-11-27T08:58:39.732Z,37.60
2018-11-27T09:01:09.239Z,35.93
2018-11-27T09:03:37.724Z,33.67
2018-11-27T09:06:13.907Z,35.30
2018-11-27T09:08:44.061Z,32.63
2018-11-27T09:11:13.297Z,42.60
2018-11-27T09:13:42.774Z,34.33
2018-11-27T09:16:12.278Z,40.23
2018-11-27T09:18:41.251Z,38.37
2018-11-27T09:21:16.449Z,54.23
2018-11-27T09:23:45.350Z,36.40
2018-11-27T09:26:14.513Z,36.63
2018-11-27T09:28:44.550Z,35.03
2018-11-27T09:31:13.372Z,33.43
2018-11-27T09:33:41.847Z,40.70
2018-11-27T09:36:13.783Z,45.80
2018-11-27T09:38:46.903Z,37.83
2018-11-27T09:41:16.788Z,39.80
2018-11-27T09:43:47.851Z,35.67
2018-11-27T09:46:17.368Z,39.40
2018-11-27T09:48:47.189Z,44.20
2018-11-27T09:51:15.406Z,42.67
2018-11-27T09:53:43.573Z,39.47
2018-11-27T09:56:14.870Z,37.40
2018-11-27T09:58:45.166Z,47.47
2018-11-27T10:01:14.730Z,40.60
2018-11-27T10:03:45.398Z,35.17
2018-11-27T10:06:25.051Z,33.60
2018-11-27T10:08:55.169Z,48.33
2018-11-27T10:11:25.121Z,39.13
2018-11-27T10:13:55.033Z,35.50
2018-11-27T10:16:24.846Z,34.80
2018-11-27T10:18:54.613Z,38.97
2018-11-27T10:21:29.883Z,39.67
2018-11-27T10:23:58.667Z,35.93
2018-11-27T10:26:27.123Z,38.67
2018-11-27T10:29:02.899Z,36.83
2018-11-27T10:31:31.789Z,38.90
2018-11-27T10:34:02.112Z,36.83
2018-11-27T10:36:30.476Z,33.40
2018-11-27T10:39:03.271Z,39.80
2018-11-27T10:41:31.444Z,40.60
2018-11-27T10:44:03.266Z,35.00
2018-11-27T10:46:32.238Z,38.03
2018-11-27T10:49:00.717Z,32.10
2018-11-27T10:51:36.834Z,37.80
2018-11-27T10:54:06.253Z,39.70
2018-11-27T10:56:37.177Z,45.10
2018-11-27T10:59:05.972Z,38.20
2018-11-27T11:01:39.856Z,56.60
2018-11-27T11:04:10.092Z,48.63
2018-11-27T11:06:39.664Z,59.00
2018-11-27T11:09:14.079Z,44.53
2018-11-27T11:11:42.988Z,33.13
2018-11-27T11:14:12.444Z,35.50
2018-11-27T11:16:42.295Z,39.27
2018-11-27T11:19:11.639Z,38.13
2018-11-27T11:21:43.353Z,36.53
2018-11-27T11:24:12.655Z,39.07
2018-11-27T11:26:42.467Z,33.57
2018-11-27T11:29:12.148Z,36.67
2018-11-27T11:31:42.513Z,43.00
2018-11-27T11:34:11.955Z,36.37
2018-11-27T11:36:41.045Z,42.50
2018-11-27T11:39:13.220Z,37.53
2018-11-27T11:41:42.776Z,44.07
2018-11-27T11:44:12.240Z,44.80
2018-11-27T11:46:41.566Z,41.33
2018-11-27T11:49:13.582Z,45.67
2018-11-27T11:51:49.303Z,34.20
2018-11-27T11:54:18.532Z,43.23
2018-11-27T11:56:52.751Z,39.80
2018-11-27T11:59:28.639Z,60.23
2018-11-27T12:01:53.427Z,46.63
2018-11-27T12:04:23.799Z,48.23
2018-11-27T12:06:56.586Z,40.77
2018-11-27T12:09:26.307Z,37.73
2018-11-27T12:11:55.254Z,49.17
2018-11-27T12:14:25.090Z,35.73
2018-11-27T12:16:54.338Z,42.93
2018-11-27T12:19:25.152Z,38.17
2018-11-27T12:21:54.600Z,46.43
2018-11-27T12:24:27.053Z,48.53
2018-11-27T12:26:58.719Z,34.10
2018-11-27T12:29:27.856Z,40.20
2018-11-27T12:31:59.571Z,40.20
2018-11-27T12:34:29.865Z,39.10
2018-11-27T12:37:00.003Z,45.60
2018-11-27T12:39:30.888Z,44.90
2018-11-27T12:41:59.650Z,54.63
2018-11-27T12:44:29.042Z,46.00
2018-11-27T12:46:57.594Z,46.13
2018-11-27T12:49:29.972Z,42.60
2018-11-27T12:52:00.945Z,45.33
2018-11-27T12:54:29.274Z,49.40
2018-11-27T12:57:04.987Z,38.90
2018-11-27T12:59:36.448Z,38.90
2018-11-27T13:02:05.727Z,42.23
2018-11-27T13:04:45.452Z,45.50
2018-11-27T13:07:14.562Z,43.63
2018-11-27T13:09:43.922Z,49.33
2018-11-27T13:12:14.268Z,44.00
2018-11-27T13:14:44.179Z,45.93
2018-11-27T13:17:14.686Z,47.83
2018-11-27T13:19:45.594Z,58.70
2018-11-27T13:22:15.976Z,55.43
2018-11-27T13:24:47.052Z,49.77
2018-11-27T13:27:17.500Z,47.60
2018-11-27T13:29:46.895Z,45.87
2018-11-27T13:32:21.005Z,48.90
2018-11-27T13:34:52.649Z,51.07
2018-11-27T13:37:21.166Z,53.07
2018-11-27T13:39:50.660Z,57.07
2018-11-27T13:42:20.820Z,49.03
2018-11-27T13:44:50.355Z,54.90
2018-11-27T13:47:20.060Z,48.30
2018-11-27T13:49:49.517Z,53.00
2018-11-27T13:52:18.428Z,53.20
2018-11-27T13:54:47.266Z,48.87
2018-11-27T13:57:19.871Z,54.47
2018-11-27T13:59:50.915Z,61.73
2018-11-27T14:02:20.842Z,51.83
2018-11-27T14:04:52.454Z,59.30
2018-11-27T14:07:21.575Z,54.27
2018-11-27T14:09:53.046Z,51.20
2018-11-27T14:12:23.503Z,54.77
2018-11-27T14:17:52.727Z,53.60
2018-11-27T14:20:24.246Z,56.53
2018-11-27T14:22:53.485Z,49.63
2018-11-27T14:25:24.258Z,59.43
2018-11-27T14:27:53.457Z,54.73
2018-11-27T14:30:23.830Z,63.30
2018-11-27T14:32:52.489Z,51.93
2018-11-27T14:35:24.030Z,51.13
2018-11-27T14:37:54.713Z,63.27
2018-11-27T14:40:27.176Z,55.67
2018-11-27T14:42:56.363Z,58.13
2018-11-27T14:45:26.028Z,57.50
2018-11-27T14:47:58.379Z,57.80
2018-11-27T14:50:28.859Z,59.03
2018-11-27T14:52:58.042Z,59.80
2018-11-27T14:55:28.519Z,57.17
2018-11-27T14:57:57.848Z,57.07
2018-11-27T15:00:27.110Z,59.07
2018-11-27T15:02:56.668Z,57.27
2018-11-27T15:05:31.465Z,60.10
2018-11-27T15:08:00.696Z,60.20
2018-11-27T15:10:29.571Z,52.23
2018-11-27T15:13:03.852Z,58.27
2018-11-27T15:15:33.718Z,52.87
2018-11-27T15:18:04.096Z,52.93
2018-11-27T15:20:33.546Z,54.57
2018-11-27T15:23:02.139Z,59.07
2018-11-27T15:25:30.986Z,54.30
2018-11-27T15:28:01.885Z,59.10
2018-11-27T15:30:33.813Z,62.47
2018-11-27T15:33:02.856Z,61.07
2018-11-27T15:35:31.863Z,61.67
2018-11-27T15:38:07.215Z,66.87
2018-11-27T15:40:38.816Z,56.43
2018-11-27T15:43:11.578Z,65.63
2018-11-27T15:45:40.774Z,67.87
2018-11-27T15:48:10.790Z,55.57
2018-11-27T15:50:40.302Z,60.73
2018-11-27T15:53:09.331Z,60.50
2018-11-27T15:55:41.349Z,59.03
2018-11-27T15:58:13.214Z,61.07
2018-11-27T16:00:42.971Z,57.30
2018-11-27T16:03:13.507Z,65.20
2018-11-27T16:05:46.238Z,75.00
2018-11-27T16:08:15.023Z,62.85
2018-11-27T16:10:43.732Z,78.92
2018-11-27T16:13:17.020Z,74.93
2018-11-27T16:15:49.292Z,60.83
2018-11-27T16:18:18.575Z,65.33
2018-11-27T16:20:48.467Z,64.97
2018-11-27T16:23:17.283Z,63.15
2018-11-27T16:25:47.521Z,61.00
2018-11-27T16:28:17.623Z,56.42
2018-11-27T16:30:48.529Z,71.60
2018-11-27T16:33:19.610Z,61.53
2018-11-27T16:35:50.945Z,61.77
2018-11-27T16:38:20.681Z,58.13
2018-11-27T16:40:52.274Z,58.90
2018-11-27T16:43:21.963Z,59.53
2018-11-27T16:45:51.227Z,54.95
2018-11-27T16:48:20.519Z,59.27
2018-11-27T16:50:51.695Z,51.40
2018-11-27T16:53:21.577Z,57.75
2018-11-27T16:55:50.613Z,56.45
2018-11-27T16:58:23.357Z,54.67
2018-11-27T17:00:53.570Z,59.67
2018-11-27T17:03:22.816Z,53.87
2018-11-27T17:05:52.586Z,56.28
2018-11-27T17:08:20.823Z,62.35
2018-11-27T17:10:51.310Z,62.27
2018-11-27T17:13:20.506Z,62.58
2018-11-27T17:15:52.797Z,56.83
2018-11-27T17:18:27.481Z,55.95
2018-11-27T17:20:57.033Z,53.78
2018-11-27T17:23:26.453Z,60.85
2018-11-27T17:25:55.297Z,54.45
2018-11-27T17:28:28.470Z,62.62
2018-11-27T17:31:04.117Z,58.95
2018-11-27T17:33:37.559Z,56.28
2018-11-27T17:36:08.488Z,57.48
2018-11-27T17:38:41.950Z,58.00
2018-11-27T17:41:12.592Z,60.15
2018-11-27T17:43:42.076Z,55.15
2018-11-27T17:46:11.491Z,61.30
2018-11-27T17:48:47.284Z,56.30
2018-11-27T17:51:17.155Z,52.53
2018-11-27T17:53:49.429Z,52.08
2018-11-27T17:56:18.260Z,50.08
2018-11-27T17:58:53.558Z,49.90
2018-11-27T18:01:23.167Z,60.95
2018-11-27T18:03:53.797Z,50.95
2018-11-27T18:06:24.299Z,50.67
2018-11-27T18:08:54.399Z,48.08
2018-11-27T18:11:23.304Z,55.52
2018-11-27T18:13:53.684Z,52.40
2018-11-27T18:16:22.993Z,56.45
2018-11-27T18:21:35.851Z,50.63
2018-11-27T18:24:13.081Z,47.33
2018-11-27T18:26:45.144Z,47.93
2018-11-27T18:29:18.089Z,51.15
2018-11-27T18:31:52.066Z,50.40
2018-11-27T18:34:28.441Z,55.67
2018-11-27T18:36:56.716Z,47.30
2018-11-27T18:39:25.452Z,47.53
2018-11-27T18:41:55.489Z,55.12
2018-11-27T18:44:25.876Z,43.95
2018-11-27T18:47:02.429Z,47.27
2018-11-27T18:49:36.491Z,48.65
2018-11-27T18:52:12.615Z,47.50
2018-11-27T18:54:45.709Z,49.98
2018-11-27T18:57:14.211Z,49.03
2018-11-27T18:59:45.429Z,49.77
2018-11-27T19:02:20.585Z,48.68
2018-11-27T19:04:49.918Z,52.78
2018-11-27T19:07:24.288Z,54.00
2018-11-27T19:09:59.045Z,46.95
2018-11-27T19:12:37.575Z,44.15
2018-11-27T19:15:11.278Z,46.40
2018-11-27T19:17:41.841Z,46.58
2018-11-27T19:20:12.067Z,47.95
2018-11-27T19:22:44.514Z,48.80
2018-11-27T19:25:21.365Z,48.33
2018-11-27T19:28:07.454Z,43.95
2018-11-27T19:30:48.237Z,60.63
2018-11-27T19:35:57.326Z,56.58
2018-11-27T19:38:27.416Z,54.35
2018-11-27T19:40:58.243Z,56.33
2018-11-27T19:43:30.831Z,56.85
2018-11-27T19:46:09.291Z,56.48
2018-11-27T19:48:44.632Z,57.45
2018-11-27T19:51:19.534Z,48.73
2018-11-27T19:53:54.835Z,58.95
2018-11-27T19:56:31.830Z,51.85
2018-11-27T19:59:09.121Z,57.33
2018-11-27T20:01:38.359Z,49.13
2018-11-27T20:04:14.069Z,55.43
2018-11-27T20:06:49.045Z,54.98
2018-11-27T20:09:28.206Z,54.27
2018-11-27T20:12:15.344Z,56.55
2018-11-27T20:14:47.111Z,56.25
2018-11-27T20:17:22.290Z,54.55
2018-11-27T20:19:51.615Z,48.80
2018-11-27T20:22:23.919Z,52.38
2018-11-27T20:24:53.732Z,55.92
2018-11-27T20:27:27.634Z,57.80
2018-11-27T20:30:01.191Z,56.45
2018-11-27T20:32:34.012Z,56.50
2018-11-27T20:35:11.576Z,49.13
2018-11-27T20:37:45.311Z,60.12
2018-11-27T20:40:18.948Z,54.30
2018-11-27T20:42:56.631Z,51.42
2018-11-27T20:45:34.178Z,56.20
2018-11-27T20:48:17.303Z,52.30
2018-11-27T20:50:52.883Z,54.05
2018-11-27T20:53:34.417Z,61.60
2018-11-27T20:56:11.110Z,59.13
2018-11-27T20:58:42.253Z,63.60
2018-11-27T21:03:51.327Z,64.90
2018-11-27T21:06:24.525Z,68.60
2018-11-27T21:08:53.350Z,63.05
2018-11-27T21:11:24.761Z,66.28
2018-11-27T21:14:00.452Z,68.75
2018-11-27T21:16:31.744Z,65.83
2018-11-27T21:19:01.153Z,64.58
2018-11-27T21:21:30.534Z,65.35
2018-11-27T21:24:00.727Z,75.10
2018-11-27T21:26:30.352Z,65.75
2018-11-27T21:29:00.336Z,58.63
2018-11-27T21:31:30.773Z,66.35
2018-11-27T21:34:00.669Z,64.50
2018-11-27T21:36:37.385Z,67.62
2018-11-27T21:39:14.920Z,75.00
2018-11-27T21:41:55.193Z,82.17
2018-11-27T21:44:26.631Z,68.75
2018-11-27T21:46:58.747Z,61.75
2018-11-27T21:49:26.973Z,68.05
2018-11-27T21:51:59.317Z,59.63
2018-11-27T21:54:28.632Z,62.60
2018-11-27T21:57:01.429Z,61.70
2018-11-27T21:59:30.078Z,62.48
2018-11-27T22:02:00.399Z,53.83
2018-11-27T22:04:29.446Z,59.58
2018-11-27T22:06:59.033Z,53.65
2018-11-27T22:09:28.676Z,60.23
2018-11-27T22:11:57.111Z,70.72
2018-11-27T22:14:26.831Z,79.12
2018-11-27T22:16:57.491Z,79.07
2018-11-27T22:19:26.350Z,90.25
2018-11-27T22:21:56.411Z,79.35
2018-11-27T22:24:26.853Z,67.50
2018-11-27T22:26:55.822Z,60.78
2018-11-27T22:29:24.956Z,73.78
2018-11-27T22:31:53.967Z,60.35
2018-11-27T22:34:24.294Z,58.87
2018-11-27T22:36:52.742Z,59.05
2018-11-27T22:39:20.977Z,55.58
2018-11-27T22:41:50.131Z,58.50
2018-11-27T22:44:18.528Z,67.30
2018-11-27T22:46:48.686Z,61.88
2018-11-27T22:49:17.740Z,53.10
2018-11-27T22:51:46.151Z,69.90
2018-11-27T22:54:15.569Z,57.75
2018-11-27T22:56:46.137Z,62.38
2018-11-27T22:59:14.271Z,57.80
2018-11-27T23:01:42.640Z,64.50
2018-11-27T23:04:12.147Z,78.15
2018-11-27T23:06:41.838Z,67.32
2018-11-27T23:09:10.385Z,64.07
2018-11-27T23:11:40.522Z,62.93
2018-11-27T23:14:09.446Z,64.45
2018-11-27T23:16:37.581Z,76.77
2018-11-27T23:19:06.800Z,74.72
2018-11-27T23:21:37.403Z,70.92
2018-11-27T23:24:11.635Z,64.70
2018-11-27T23:26:39.663Z,55.48
2018-11-27T23:29:10.702Z,62.17
2018-11-27T23:31:40.661Z,60.75
2018-11-27T23:34:10.120Z,73.45
2018-11-27T23:36:40.204Z,58.50
2018-11-27T23:39:09.339Z,62.58
2018-11-27T23:41:37.534Z,71.25
2018-11-27T23:44:05.841Z,62.65
2018-11-27T23:46:35.529Z,58.65
2018-11-27T23:49:04.467Z,63.38
2018-11-27T23:51:33.073Z,60.60
2018-11-27T23:54:04.061Z,62.90
2018-11-27T23:56:32.837Z,64.87
2018-11-27T23:59:02.594Z,62.45
